sensor_id;sensor_type;location;lat;lon;timestamp;P1;durP1;ratioP1;P2;durP2;ratioP2
29432;SDS011;16405;53.964;13.448;2023-09-19T00:01:34;12.88;;;3.10;;
29432;SDS011;16405;53.964;13.448;2023-09-19T00:04:00;8.50;;;3.22;;
29432;SDS011;16405;53.964;13.448;2023-09-19T00:06:29;10.93;;;3.33;;
29432;SDS011;16405;53.964;13.448;2023-09-19T00:08:56;12.88;;;3.30;;
29432;SDS011;16405;53.964;13.448;2023-09-19T00:11:25;12.35;;;3.42;;
29432;SDS011;16405;53.964;13.448;2023-09-19T00:13:51;13.93;;;3.38;;
29432;SDS011;16405;53.964;13.448;2023-09-19T00:16:18;8.70;;;3.17;;
29432;SDS011;16405;53.964;13.448;2023-09-19T00:18:44;12.43;;;2.92;;
29432;SDS011;16405;53.964;13.448;2023-09-19T00:21:10;11.88;;;3.33;;
29432;SDS011;16405;53.964;13.448;2023-09-19T00:23:36;9.05;;;3.10;;
29432;SDS011;16405;53.964;13.448;2023-09-19T00:26:02;10.25;;;3.40;;
29432;SDS011;16405;53.964;13.448;2023-09-19T00:28:29;10.80;;;3.22;;
29432;SDS011;16405;53.964;13.448;2023-09-19T00:30:55;17.48;;;3.08;;
29432;SDS011;16405;53.964;13.448;2023-09-19T00:33:21;6.45;;;2.95;;
29432;SDS011;16405;53.964;13.448;2023-09-19T00:35:51;14.27;;;3.80;;
29432;SDS011;16405;53.964;13.448;2023-09-19T00:38:18;9.15;;;3.30;;
29432;SDS011;16405;53.964;13.448;2023-09-19T00:40:52;7.97;;;2.95;;
29432;SDS011;16405;53.964;13.448;2023-09-19T00:43:19;10.25;;;3.35;;
29432;SDS011;16405;53.964;13.448;2023-09-19T00:45:49;7.70;;;2.97;;
29432;SDS011;16405;53.964;13.448;2023-09-19T00:48:18;10.10;;;3.08;;
29432;SDS011;16405;53.964;13.448;2023-09-19T00:50:46;9.38;;;3.45;;
29432;SDS011;16405;53.964;13.448;2023-09-19T00:53:14;6.35;;;2.92;;
29432;SDS011;16405;53.964;13.448;2023-09-19T00:55:45;10.55;;;3.40;;
29432;SDS011;16405;53.964;13.448;2023-09-19T00:58:11;11.23;;;3.17;;
29432;SDS011;16405;53.964;13.448;2023-09-19T01:00:37;11.38;;;3.50;;
29432;SDS011;16405;53.964;13.448;2023-09-19T01:03:04;9.13;;;2.97;;
29432;SDS011;16405;53.964;13.448;2023-09-19T01:05:31;9.10;;;3.15;;
29432;SDS011;16405;53.964;13.448;2023-09-19T01:07:58;12.38;;;3.85;;
29432;SDS011;16405;53.964;13.448;2023-09-19T01:10:24;8.07;;;3.67;;
29432;SDS011;16405;53.964;13.448;2023-09-19T01:30:56;11.75;;;3.70;;
29432;SDS011;16405;53.964;13.448;2023-09-19T01:33:24;9.48;;;3.50;;
29432;SDS011;16405;53.964;13.448;2023-09-19T01:35:50;13.63;;;4.15;;
29432;SDS011;16405;53.964;13.448;2023-09-19T01:38:18;8.07;;;3.22;;
29432;SDS011;16405;53.964;13.448;2023-09-19T01:40:48;11.13;;;3.80;;
29432;SDS011;16405;53.964;13.448;2023-09-19T01:43:37;10.73;;;3.75;;
29432;SDS011;16405;53.964;13.448;2023-09-19T01:46:14;15.10;;;4.15;;
29432;SDS011;16405;53.964;13.448;2023-09-19T01:52:14;8.27;;;3.78;;
29432;SDS011;16405;53.964;13.448;2023-09-19T01:54:48;10.25;;;3.38;;
29432;SDS011;16405;53.964;13.448;2023-09-19T01:57:22;10.02;;;3.58;;
29432;SDS011;16405;53.964;13.448;2023-09-19T01:59:59;8.00;;;3.45;;
29432;SDS011;16405;53.964;13.448;2023-09-19T02:02:37;7.32;;;3.55;;
29432;SDS011;16405;53.964;13.448;2023-09-19T02:05:05;6.90;;;3.03;;
29432;SDS011;16405;53.964;13.448;2023-09-19T02:07:31;8.00;;;3.10;;
29432;SDS011;16405;53.964;13.448;2023-09-19T02:09:58;6.80;;;2.80;;
29432;SDS011;16405;53.964;13.448;2023-09-19T02:12:25;5.82;;;2.60;;
29432;SDS011;16405;53.964;13.448;2023-09-19T02:14:51;11.02;;;2.72;;
29432;SDS011;16405;53.964;13.448;2023-09-19T02:17:17;7.57;;;2.60;;
29432;SDS011;16405;53.964;13.448;2023-09-19T02:19:43;6.63;;;2.17;;
29432;SDS011;16405;53.964;13.448;2023-09-19T02:22:08;11.88;;;2.58;;
29432;SDS011;16405;53.964;13.448;2023-09-19T02:24:35;10.57;;;2.80;;
29432;SDS011;16405;53.964;13.448;2023-09-19T02:27:03;6.00;;;2.50;;
29432;SDS011;16405;53.964;13.448;2023-09-19T02:29:30;16.08;;;2.80;;
29432;SDS011;16405;53.964;13.448;2023-09-19T02:31:56;6.43;;;2.97;;
29432;SDS011;16405;53.964;13.448;2023-09-19T02:34:22;9.98;;;2.80;;
29432;SDS011;16405;53.964;13.448;2023-09-19T02:36:48;7.68;;;3.17;;
29432;SDS011;16405;53.964;13.448;2023-09-19T02:39:14;9.23;;;3.20;;
29432;SDS011;16405;53.964;13.448;2023-09-19T02:41:40;7.38;;;2.75;;
29432;SDS011;16405;53.964;13.448;2023-09-19T02:44:06;8.85;;;2.92;;
29432;SDS011;16405;53.964;13.448;2023-09-19T02:46:36;5.40;;;2.35;;
29432;SDS011;16405;53.964;13.448;2023-09-19T02:49:02;7.45;;;2.30;;
29432;SDS011;16405;53.964;13.448;2023-09-19T02:51:31;4.57;;;2.45;;
29432;SDS011;16405;53.964;13.448;2023-09-19T02:53:58;10.75;;;2.67;;
29432;SDS011;16405;53.964;13.448;2023-09-19T02:56:24;9.70;;;2.63;;
29432;SDS011;16405;53.964;13.448;2023-09-19T02:58:50;6.70;;;2.10;;
29432;SDS011;16405;53.964;13.448;2023-09-19T03:01:16;4.05;;;1.98;;
29432;SDS011;16405;53.964;13.448;2023-09-19T03:03:43;5.05;;;2.00;;
29432;SDS011;16405;53.964;13.448;2023-09-19T03:06:10;6.00;;;2.30;;
29432;SDS011;16405;53.964;13.448;2023-09-19T03:08:38;4.63;;;2.00;;
29432;SDS011;16405;53.964;13.448;2023-09-19T03:11:05;8.23;;;2.40;;
29432;SDS011;16405;53.964;13.448;2023-09-19T03:13:32;5.80;;;1.90;;
29432;SDS011;16405;53.964;13.448;2023-09-19T03:15:58;7.97;;;2.42;;
29432;SDS011;16405;53.964;13.448;2023-09-19T03:18:24;5.43;;;1.77;;
29432;SDS011;16405;53.964;13.448;2023-09-19T03:20:54;7.03;;;1.60;;
29432;SDS011;16405;53.964;13.448;2023-09-19T03:23:21;5.32;;;1.70;;
29432;SDS011;16405;53.964;13.448;2023-09-19T03:25:47;5.68;;;1.80;;
29432;SDS011;16405;53.964;13.448;2023-09-19T03:28:13;5.40;;;1.90;;
29432;SDS011;16405;53.964;13.448;2023-09-19T03:30:40;6.65;;;1.98;;
29432;SDS011;16405;53.964;13.448;2023-09-19T03:33:07;5.20;;;1.70;;
29432;SDS011;16405;53.964;13.448;2023-09-19T03:35:33;7.07;;;1.63;;
29432;SDS011;16405;53.964;13.448;2023-09-19T03:37:59;4.55;;;1.50;;
29432;SDS011;16405;53.964;13.448;2023-09-19T03:40:25;7.60;;;1.67;;
29432;SDS011;16405;53.964;13.448;2023-09-19T03:42:51;4.40;;;1.55;;
29432;SDS011;16405;53.964;13.448;2023-09-19T03:45:17;5.88;;;1.40;;
29432;SDS011;16405;53.964;13.448;2023-09-19T03:47:43;8.13;;;1.67;;
29432;SDS011;16405;53.964;13.448;2023-09-19T03:50:12;8.25;;;1.80;;
29432;SDS011;16405;53.964;13.448;2023-09-19T03:52:40;10.23;;;2.15;;
29432;SDS011;16405;53.964;13.448;2023-09-19T03:55:06;5.85;;;1.50;;
29432;SDS011;16405;53.964;13.448;2023-09-19T03:57:32;8.30;;;1.70;;
29432;SDS011;16405;53.964;13.448;2023-09-19T03:59:57;8.48;;;1.98;;
29432;SDS011;16405;53.964;13.448;2023-09-19T04:02:23;9.55;;;1.90;;
29432;SDS011;16405;53.964;13.448;2023-09-19T04:04:52;5.95;;;1.60;;
29432;SDS011;16405;53.964;13.448;2023-09-19T04:07:18;4.60;;;1.40;;
29432;SDS011;16405;53.964;13.448;2023-09-19T04:09:47;8.77;;;1.90;;
29432;SDS011;16405;53.964;13.448;2023-09-19T04:12:14;5.90;;;1.90;;
29432;SDS011;16405;53.964;13.448;2023-09-19T04:14:42;6.80;;;1.85;;
29432;SDS011;16405;53.964;13.448;2023-09-19T04:17:07;9.25;;;1.73;;
29432;SDS011;16405;53.964;13.448;2023-09-19T04:19:34;5.07;;;1.50;;
29432;SDS011;16405;53.964;13.448;2023-09-19T04:22:00;2.85;;;1.45;;
29432;SDS011;16405;53.964;13.448;2023-09-19T04:24:26;6.78;;;2.10;;
29432;SDS011;16405;53.964;13.448;2023-09-19T04:26:51;9.23;;;2.35;;
29432;SDS011;16405;53.964;13.448;2023-09-19T04:29:17;6.97;;;1.60;;
29432;SDS011;16405;53.964;13.448;2023-09-19T04:31:44;12.95;;;1.70;;
29432;SDS011;16405;53.964;13.448;2023-09-19T04:34:11;8.55;;;1.90;;
29432;SDS011;16405;53.964;13.448;2023-09-19T04:36:42;6.75;;;2.13;;
29432;SDS011;16405;53.964;13.448;2023-09-19T04:39:09;7.20;;;1.63;;
29432;SDS011;16405;53.964;13.448;2023-09-19T04:41:36;5.80;;;1.80;;
29432;SDS011;16405;53.964;13.448;2023-09-19T04:44:06;4.65;;;1.58;;
29432;SDS011;16405;53.964;13.448;2023-09-19T04:46:33;4.43;;;1.70;;
29432;SDS011;16405;53.964;13.448;2023-09-19T04:49:00;8.05;;;1.70;;
29432;SDS011;16405;53.964;13.448;2023-09-19T04:51:26;6.82;;;1.73;;
29432;SDS011;16405;53.964;13.448;2023-09-19T04:53:54;6.78;;;1.88;;
29432;SDS011;16405;53.964;13.448;2023-09-19T04:56:20;4.93;;;1.67;;
29432;SDS011;16405;53.964;13.448;2023-09-19T04:58:47;4.10;;;2.08;;
29432;SDS011;16405;53.964;13.448;2023-09-19T05:01:12;4.10;;;1.73;;
29432;SDS011;16405;53.964;13.448;2023-09-19T05:03:40;5.25;;;1.52;;
29432;SDS011;16405;53.964;13.448;2023-09-19T05:06:05;4.88;;;1.77;;
29432;SDS011;16405;53.964;13.448;2023-09-19T05:08:31;4.60;;;1.73;;
29432;SDS011;16405;53.964;13.448;2023-09-19T05:10:57;7.25;;;1.73;;
29432;SDS011;16405;53.964;13.448;2023-09-19T05:13:23;9.15;;;2.05;;
29432;SDS011;16405;53.964;13.448;2023-09-19T05:15:49;7.65;;;1.90;;
29432;SDS011;16405;53.964;13.448;2023-09-19T05:18:15;4.82;;;1.73;;
29432;SDS011;16405;53.964;13.448;2023-09-19T05:20:41;7.05;;;2.05;;
29432;SDS011;16405;53.964;13.448;2023-09-19T05:23:07;6.05;;;2.10;;
29432;SDS011;16405;53.964;13.448;2023-09-19T05:25:35;8.27;;;2.30;;
29432;SDS011;16405;53.964;13.448;2023-09-19T05:28:02;5.05;;;1.80;;
29432;SDS011;16405;53.964;13.448;2023-09-19T05:30:28;6.80;;;2.00;;
29432;SDS011;16405;53.964;13.448;2023-09-19T05:32:54;6.00;;;2.10;;
29432;SDS011;16405;53.964;13.448;2023-09-19T05:35:21;5.65;;;2.35;;
29432;SDS011;16405;53.964;13.448;2023-09-19T05:37:50;7.00;;;1.75;;
29432;SDS011;16405;53.964;13.448;2023-09-19T05:40:17;8.15;;;2.10;;
29432;SDS011;16405;53.964;13.448;2023-09-19T05:42:43;5.25;;;2.10;;
29432;SDS011;16405;53.964;13.448;2023-09-19T05:45:09;7.32;;;2.28;;
29432;SDS011;16405;53.964;13.448;2023-09-19T05:47:42;14.23;;;2.35;;
29432;SDS011;16405;53.964;13.448;2023-09-19T05:50:10;11.02;;;2.35;;
29432;SDS011;16405;53.964;13.448;2023-09-19T05:52:37;7.68;;;2.20;;
29432;SDS011;16405;53.964;13.448;2023-09-19T05:55:06;8.23;;;2.28;;
29432;SDS011;16405;53.964;13.448;2023-09-19T05:57:33;6.40;;;2.08;;
29432;SDS011;16405;53.964;13.448;2023-09-19T05:59:59;12.40;;;1.88;;
29432;SDS011;16405;53.964;13.448;2023-09-19T06:02:25;9.10;;;2.13;;
29432;SDS011;16405;53.964;13.448;2023-09-19T06:04:55;4.72;;;1.98;;
29432;SDS011;16405;53.964;13.448;2023-09-19T06:07:21;6.88;;;2.17;;
29432;SDS011;16405;53.964;13.448;2023-09-19T06:09:51;7.80;;;2.22;;
29432;SDS011;16405;53.964;13.448;2023-09-19T06:12:18;4.78;;;1.85;;
29432;SDS011;16405;53.964;13.448;2023-09-19T06:14:44;10.98;;;2.13;;
29432;SDS011;16405;53.964;13.448;2023-09-19T06:17:10;5.40;;;2.28;;
29432;SDS011;16405;53.964;13.448;2023-09-19T06:19:36;4.38;;;2.00;;
29432;SDS011;16405;53.964;13.448;2023-09-19T06:22:01;8.48;;;2.50;;
29432;SDS011;16405;53.964;13.448;2023-09-19T06:24:28;8.98;;;2.05;;
29432;SDS011;16405;53.964;13.448;2023-09-19T06:26:54;5.05;;;2.08;;
29432;SDS011;16405;53.964;13.448;2023-09-19T06:29:20;10.77;;;2.33;;
29432;SDS011;16405;53.964;13.448;2023-09-19T06:31:48;5.07;;;1.70;;
29432;SDS011;16405;53.964;13.448;2023-09-19T06:34:13;8.18;;;1.92;;
29432;SDS011;16405;53.964;13.448;2023-09-19T06:36:40;5.90;;;1.77;;
29432;SDS011;16405;53.964;13.448;2023-09-19T06:39:06;6.47;;;2.05;;
29432;SDS011;16405;53.964;13.448;2023-09-19T06:41:35;7.75;;;2.08;;
29432;SDS011;16405;53.964;13.448;2023-09-19T06:44:04;8.55;;;2.13;;
29432;SDS011;16405;53.964;13.448;2023-09-19T06:46:30;5.97;;;1.92;;
29432;SDS011;16405;53.964;13.448;2023-09-19T06:48:59;6.45;;;2.00;;
29432;SDS011;16405;53.964;13.448;2023-09-19T06:51:28;9.40;;;2.20;;
29432;SDS011;16405;53.964;13.448;2023-09-19T06:53:54;6.72;;;1.90;;
29432;SDS011;16405;53.964;13.448;2023-09-19T06:56:21;8.25;;;2.20;;
29432;SDS011;16405;53.964;13.448;2023-09-19T06:58:49;6.55;;;1.80;;
29432;SDS011;16405;53.964;13.448;2023-09-19T07:01:15;9.95;;;2.13;;
29432;SDS011;16405;53.964;13.448;2023-09-19T07:03:41;8.10;;;2.08;;
29432;SDS011;16405;53.964;13.448;2023-09-19T07:06:06;6.32;;;1.90;;
29432;SDS011;16405;53.964;13.448;2023-09-19T07:08:33;10.05;;;1.95;;
29432;SDS011;16405;53.964;13.448;2023-09-19T07:10:59;8.45;;;2.30;;
29432;SDS011;16405;53.964;13.448;2023-09-19T07:13:26;6.78;;;2.47;;
29432;SDS011;16405;53.964;13.448;2023-09-19T07:15:51;10.35;;;1.98;;
29432;SDS011;16405;53.964;13.448;2023-09-19T07:18:18;13.20;;;2.03;;
29432;SDS011;16405;53.964;13.448;2023-09-19T07:20:45;5.65;;;1.80;;
29432;SDS011;16405;53.964;13.448;2023-09-19T07:23:20;6.20;;;2.13;;
29432;SDS011;16405;53.964;13.448;2023-09-19T07:25:49;14.43;;;2.03;;
29432;SDS011;16405;53.964;13.448;2023-09-19T07:28:15;6.35;;;1.55;;
29432;SDS011;16405;53.964;13.448;2023-09-19T07:30:41;10.88;;;2.35;;
29432;SDS011;16405;53.964;13.448;2023-09-19T07:33:07;8.65;;;2.42;;
29432;SDS011;16405;53.964;13.448;2023-09-19T07:35:36;10.45;;;2.10;;
29432;SDS011;16405;53.964;13.448;2023-09-19T07:38:04;8.95;;;1.98;;
29432;SDS011;16405;53.964;13.448;2023-09-19T07:40:31;8.88;;;2.05;;
29432;SDS011;16405;53.964;13.448;2023-09-19T07:42:56;15.80;;;2.10;;
29432;SDS011;16405;53.964;13.448;2023-09-19T07:45:26;6.25;;;2.00;;
29432;SDS011;16405;53.964;13.448;2023-09-19T07:47:56;7.88;;;2.05;;
29432;SDS011;16405;53.964;13.448;2023-09-19T07:50:22;6.32;;;2.00;;
29432;SDS011;16405;53.964;13.448;2023-09-19T07:52:49;8.80;;;1.92;;
29432;SDS011;16405;53.964;13.448;2023-09-19T07:55:18;7.43;;;2.00;;
29432;SDS011;16405;53.964;13.448;2023-09-19T07:57:48;10.13;;;2.00;;
29432;SDS011;16405;53.964;13.448;2023-09-19T08:00:14;9.13;;;1.90;;
29432;SDS011;16405;53.964;13.448;2023-09-19T08:02:40;14.57;;;1.92;;
29432;SDS011;16405;53.964;13.448;2023-09-19T08:05:10;10.68;;;2.10;;
29432;SDS011;16405;53.964;13.448;2023-09-19T08:07:37;7.95;;;1.83;;
29432;SDS011;16405;53.964;13.448;2023-09-19T08:10:07;10.40;;;2.00;;
29432;SDS011;16405;53.964;13.448;2023-09-19T08:12:37;19.90;;;2.38;;
29432;SDS011;16405;53.964;13.448;2023-09-19T08:15:11;8.25;;;2.25;;
29432;SDS011;16405;53.964;13.448;2023-09-19T08:17:47;6.43;;;2.10;;
29432;SDS011;16405;53.964;13.448;2023-09-19T08:20:13;9.15;;;2.05;;
29432;SDS011;16405;53.964;13.448;2023-09-19T08:22:48;16.08;;;2.50;;
29432;SDS011;16405;53.964;13.448;2023-09-19T08:25:20;9.85;;;2.00;;
29432;SDS011;16405;53.964;13.448;2023-09-19T08:27:51;7.88;;;2.03;;
29432;SDS011;16405;53.964;13.448;2023-09-19T08:30:17;11.35;;;1.98;;
29432;SDS011;16405;53.964;13.448;2023-09-19T08:32:49;11.40;;;2.13;;
29432;SDS011;16405;53.964;13.448;2023-09-19T08:35:25;10.43;;;2.33;;
29432;SDS011;16405;53.964;13.448;2023-09-19T08:37:54;11.15;;;2.53;;
29432;SDS011;16405;53.964;13.448;2023-09-19T08:40:22;8.68;;;2.20;;
29432;SDS011;16405;53.964;13.448;2023-09-19T08:42:56;11.63;;;2.00;;
29432;SDS011;16405;53.964;13.448;2023-09-19T08:45:23;8.55;;;2.13;;
29432;SDS011;16405;53.964;13.448;2023-09-19T08:53:49;10.05;;;2.45;;
29432;SDS011;16405;53.964;13.448;2023-09-19T08:56:27;7.47;;;2.28;;
29432;SDS011;16405;53.964;13.448;2023-09-19T08:58:59;10.50;;;2.08;;
29432;SDS011;16405;53.964;13.448;2023-09-19T09:01:32;6.57;;;2.00;;
29432;SDS011;16405;53.964;13.448;2023-09-19T09:04:00;7.45;;;2.05;;
29432;SDS011;16405;53.964;13.448;2023-09-19T09:06:27;7.32;;;1.80;;
29432;SDS011;16405;53.964;13.448;2023-09-19T09:08:57;9.10;;;1.77;;
29432;SDS011;16405;53.964;13.448;2023-09-19T09:11:26;8.18;;;1.85;;
29432;SDS011;16405;53.964;13.448;2023-09-19T09:14:00;7.13;;;2.00;;
29432;SDS011;16405;53.964;13.448;2023-09-19T09:16:26;11.32;;;1.88;;
29432;SDS011;16405;53.964;13.448;2023-09-19T09:18:57;9.55;;;2.20;;
29432;SDS011;16405;53.964;13.448;2023-09-19T09:21:26;15.65;;;2.08;;
29432;SDS011;16405;53.964;13.448;2023-09-19T09:23:56;8.13;;;1.90;;
29432;SDS011;16405;53.964;13.448;2023-09-19T09:29:14;6.95;;;1.75;;
29432;SDS011;16405;53.964;13.448;2023-09-19T09:31:40;8.32;;;1.98;;
29432;SDS011;16405;53.964;13.448;2023-09-19T09:34:07;15.75;;;1.77;;
29432;SDS011;16405;53.964;13.448;2023-09-19T09:36:38;11.48;;;1.95;;
29432;SDS011;16405;53.964;13.448;2023-09-19T09:39:06;6.70;;;1.73;;
29432;SDS011;16405;53.964;13.448;2023-09-19T09:41:49;10.90;;;1.70;;
29432;SDS011;16405;53.964;13.448;2023-09-19T09:44:18;9.63;;;2.00;;
29432;SDS011;16405;53.964;13.448;2023-09-19T09:46:48;5.10;;;1.58;;
29432;SDS011;16405;53.964;13.448;2023-09-19T09:49:49;7.45;;;1.80;;
29432;SDS011;16405;53.964;13.448;2023-09-19T09:52:19;11.90;;;2.03;;
29432;SDS011;16405;53.964;13.448;2023-09-19T09:55:05;6.80;;;2.00;;
29432;SDS011;16405;53.964;13.448;2023-09-19T09:57:34;14.60;;;2.22;;
29432;SDS011;16405;53.964;13.448;2023-09-19T10:00:00;6.68;;;2.00;;
29432;SDS011;16405;53.964;13.448;2023-09-19T10:02:42;10.15;;;1.70;;
29432;SDS011;16405;53.964;13.448;2023-09-19T10:05:20;12.80;;;1.80;;
29432;SDS011;16405;53.964;13.448;2023-09-19T10:07:52;14.55;;;2.35;;
29432;SDS011;16405;53.964;13.448;2023-09-19T10:10:34;8.45;;;1.83;;
29432;SDS011;16405;53.964;13.448;2023-09-19T10:13:09;10.05;;;1.80;;
29432;SDS011;16405;53.964;13.448;2023-09-19T10:15:53;7.22;;;1.85;;
29432;SDS011;16405;53.964;13.448;2023-09-19T10:18:26;12.05;;;1.83;;
29432;SDS011;16405;53.964;13.448;2023-09-19T10:21:01;7.00;;;1.95;;
29432;SDS011;16405;53.964;13.448;2023-09-19T10:23:37;5.60;;;1.80;;
29432;SDS011;16405;53.964;13.448;2023-09-19T10:26:11;12.65;;;2.15;;
29432;SDS011;16405;53.964;13.448;2023-09-19T10:28:46;8.10;;;1.83;;
29432;SDS011;16405;53.964;13.448;2023-09-19T10:31:20;11.55;;;2.22;;
29432;SDS011;16405;53.964;13.448;2023-09-19T10:33:54;8.23;;;2.00;;
29432;SDS011;16405;53.964;13.448;2023-09-19T10:36:27;10.18;;;2.22;;
29432;SDS011;16405;53.964;13.448;2023-09-19T10:39:01;11.45;;;2.13;;
29432;SDS011;16405;53.964;13.448;2023-09-19T10:41:35;8.13;;;1.75;;
29432;SDS011;16405;53.964;13.448;2023-09-19T10:44:03;11.00;;;2.25;;
29432;SDS011;16405;53.964;13.448;2023-09-19T10:46:38;15.77;;;2.63;;
29432;SDS011;16405;53.964;13.448;2023-09-19T10:49:10;13.63;;;2.33;;
29432;SDS011;16405;53.964;13.448;2023-09-19T10:51:39;10.02;;;2.40;;
29432;SDS011;16405;53.964;13.448;2023-09-19T10:54:14;14.40;;;2.38;;
29432;SDS011;16405;53.964;13.448;2023-09-19T10:56:54;9.07;;;2.17;;
29432;SDS011;16405;53.964;13.448;2023-09-19T10:59:24;11.65;;;2.55;;
29432;SDS011;16405;53.964;13.448;2023-09-19T11:01:59;7.45;;;2.25;;
29432;SDS011;16405;53.964;13.448;2023-09-19T11:04:48;11.45;;;2.53;;
29432;SDS011;16405;53.964;13.448;2023-09-19T11:07:18;13.32;;;2.33;;
29432;SDS011;16405;53.964;13.448;2023-09-19T11:09:54;9.50;;;2.20;;
29432;SDS011;16405;53.964;13.448;2023-09-19T11:14:58;11.90;;;2.38;;
29432;SDS011;16405;53.964;13.448;2023-09-19T11:17:31;10.02;;;2.08;;
29432;SDS011;16405;53.964;13.448;2023-09-19T11:30:34;6.00;;;1.67;;
29432;SDS011;16405;53.964;13.448;2023-09-19T11:36:09;17.35;;;2.25;;
29432;SDS011;16405;53.964;13.448;2023-09-19T11:46:32;9.15;;;2.30;;
29432;SDS011;16405;53.964;13.448;2023-09-19T11:49:05;11.38;;;2.22;;
29432;SDS011;16405;53.964;13.448;2023-09-19T11:51:44;10.20;;;2.10;;
29432;SDS011;16405;53.964;13.448;2023-09-19T11:54:19;17.33;;;2.08;;
29432;SDS011;16405;53.964;13.448;2023-09-19T11:56:56;8.40;;;2.05;;
29432;SDS011;16405;53.964;13.448;2023-09-19T11:59:27;7.95;;;1.98;;
29432;SDS011;16405;53.964;13.448;2023-09-19T12:02:05;8.23;;;2.00;;
29432;SDS011;16405;53.964;13.448;2023-09-19T12:04:43;6.57;;;2.28;;
29432;SDS011;16405;53.964;13.448;2023-09-19T12:07:18;12.02;;;2.28;;
29432;SDS011;16405;53.964;13.448;2023-09-19T12:09:50;7.53;;;1.70;;
29432;SDS011;16405;53.964;13.448;2023-09-19T12:12:33;8.85;;;2.20;;
29432;SDS011;16405;53.964;13.448;2023-09-19T12:15:05;9.65;;;2.10;;
29432;SDS011;16405;53.964;13.448;2023-09-19T12:17:40;9.13;;;2.15;;
29432;SDS011;16405;53.964;13.448;2023-09-19T12:20:10;12.02;;;2.05;;
29432;SDS011;16405;53.964;13.448;2023-09-19T12:22:39;6.95;;;1.98;;
29432;SDS011;16405;53.964;13.448;2023-09-19T12:25:12;11.55;;;2.13;;
29432;SDS011;16405;53.964;13.448;2023-09-19T12:27:47;11.10;;;2.17;;
29432;SDS011;16405;53.964;13.448;2023-09-19T12:30:17;9.38;;;2.15;;
29432;SDS011;16405;53.964;13.448;2023-09-19T12:32:45;11.40;;;2.20;;
29432;SDS011;16405;53.964;13.448;2023-09-19T12:35:27;10.68;;;2.08;;
29432;SDS011;16405;53.964;13.448;2023-09-19T12:37:55;11.35;;;2.00;;
29432;SDS011;16405;53.964;13.448;2023-09-19T12:40:21;9.52;;;1.98;;
29432;SDS011;16405;53.964;13.448;2023-09-19T12:42:52;10.07;;;2.05;;
29432;SDS011;16405;53.964;13.448;2023-09-19T12:45:32;12.32;;;1.70;;
29432;SDS011;16405;53.964;13.448;2023-09-19T12:51:01;10.40;;;2.03;;
29432;SDS011;16405;53.964;13.448;2023-09-19T12:53:59;10.38;;;2.17;;
29432;SDS011;16405;53.964;13.448;2023-09-19T12:56:25;5.70;;;1.90;;
29432;SDS011;16405;53.964;13.448;2023-09-19T12:58:53;11.05;;;2.10;;
29432;SDS011;16405;53.964;13.448;2023-09-19T13:01:28;7.80;;;2.15;;
29432;SDS011;16405;53.964;13.448;2023-09-19T13:04:13;9.80;;;2.53;;
29432;SDS011;16405;53.964;13.448;2023-09-19T13:06:43;11.13;;;2.10;;
29432;SDS011;16405;53.964;13.448;2023-09-19T13:09:10;6.35;;;1.67;;
29432;SDS011;16405;53.964;13.448;2023-09-19T13:11:37;11.15;;;2.22;;
29432;SDS011;16405;53.964;13.448;2023-09-19T13:14:15;10.93;;;2.28;;
29432;SDS011;16405;53.964;13.448;2023-09-19T13:19:47;5.55;;;1.90;;
29432;SDS011;16405;53.964;13.448;2023-09-19T13:22:41;9.93;;;1.98;;
29432;SDS011;16405;53.964;13.448;2023-09-19T13:25:18;6.85;;;1.92;;
29432;SDS011;16405;53.964;13.448;2023-09-19T13:27:55;16.60;;;2.45;;
29432;SDS011;16405;53.964;13.448;2023-09-19T13:30:23;7.07;;;2.17;;
29432;SDS011;16405;53.964;13.448;2023-09-19T13:32:51;9.85;;;2.10;;
29432;SDS011;16405;53.964;13.448;2023-09-19T13:35:18;6.82;;;2.00;;
29432;SDS011;16405;53.964;13.448;2023-09-19T13:37:45;11.27;;;2.22;;
29432;SDS011;16405;53.964;13.448;2023-09-19T13:40:16;8.23;;;2.10;;
29432;SDS011;16405;53.964;13.448;2023-09-19T13:42:42;6.45;;;1.65;;
29432;SDS011;16405;53.964;13.448;2023-09-19T13:45:08;9.23;;;1.92;;
29432;SDS011;16405;53.964;13.448;2023-09-19T13:47:37;8.15;;;1.77;;
29432;SDS011;16405;53.964;13.448;2023-09-19T13:50:03;8.00;;;1.95;;
29432;SDS011;16405;53.964;13.448;2023-09-19T13:52:30;7.43;;;2.13;;
29432;SDS011;16405;53.964;13.448;2023-09-19T13:54:57;12.32;;;2.20;;
29432;SDS011;16405;53.964;13.448;2023-09-19T13:57:26;10.45;;;2.03;;
29432;SDS011;16405;53.964;13.448;2023-09-19T13:59:52;5.88;;;1.88;;
29432;SDS011;16405;53.964;13.448;2023-09-19T14:02:19;12.27;;;2.55;;
29432;SDS011;16405;53.964;13.448;2023-09-19T14:04:48;8.73;;;2.28;;
29432;SDS011;16405;53.964;13.448;2023-09-19T14:07:14;10.77;;;2.20;;
29432;SDS011;16405;53.964;13.448;2023-09-19T14:09:42;10.02;;;2.10;;
29432;SDS011;16405;53.964;13.448;2023-09-19T14:12:08;9.93;;;2.05;;
29432;SDS011;16405;53.964;13.448;2023-09-19T14:14:34;8.38;;;2.03;;
29432;SDS011;16405;53.964;13.448;2023-09-19T14:17:00;7.75;;;2.15;;
29432;SDS011;16405;53.964;13.448;2023-09-19T14:19:26;8.68;;;1.95;;
29432;SDS011;16405;53.964;13.448;2023-09-19T14:21:52;7.95;;;1.95;;
29432;SDS011;16405;53.964;13.448;2023-09-19T14:24:20;7.90;;;2.22;;
29432;SDS011;16405;53.964;13.448;2023-09-19T14:26:47;8.63;;;2.25;;
29432;SDS011;16405;53.964;13.448;2023-09-19T14:29:14;9.07;;;2.08;;
29432;SDS011;16405;53.964;13.448;2023-09-19T14:31:40;10.75;;;1.98;;
29432;SDS011;16405;53.964;13.448;2023-09-19T14:34:07;12.38;;;2.00;;
29432;SDS011;16405;53.964;13.448;2023-09-19T14:36:36;6.55;;;2.05;;
29432;SDS011;16405;53.964;13.448;2023-09-19T14:39:06;6.90;;;1.92;;
29432;SDS011;16405;53.964;13.448;2023-09-19T14:41:33;12.98;;;2.10;;
29432;SDS011;16405;53.964;13.448;2023-09-19T14:43:59;7.28;;;2.00;;
29432;SDS011;16405;53.964;13.448;2023-09-19T14:46:27;7.57;;;2.08;;
29432;SDS011;16405;53.964;13.448;2023-09-19T14:48:53;11.48;;;2.20;;
29432;SDS011;16405;53.964;13.448;2023-09-19T14:51:22;8.98;;;2.10;;
29432;SDS011;16405;53.964;13.448;2023-09-19T14:53:47;8.55;;;2.10;;
29432;SDS011;16405;53.964;13.448;2023-09-19T14:56:14;8.38;;;1.50;;
29432;SDS011;16405;53.964;13.448;2023-09-19T14:58:43;11.82;;;2.00;;
29432;SDS011;16405;53.964;13.448;2023-09-19T15:01:10;11.10;;;2.20;;
29432;SDS011;16405;53.964;13.448;2023-09-19T15:03:38;8.32;;;2.20;;
29432;SDS011;16405;53.964;13.448;2023-09-19T15:06:06;13.88;;;2.13;;
29432;SDS011;16405;53.964;13.448;2023-09-19T15:08:37;11.23;;;2.40;;
29432;SDS011;16405;53.964;13.448;2023-09-19T15:11:06;6.47;;;1.80;;
29432;SDS011;16405;53.964;13.448;2023-09-19T15:13:33;7.38;;;2.13;;
29432;SDS011;16405;53.964;13.448;2023-09-19T15:16:00;8.15;;;2.03;;
29432;SDS011;16405;53.964;13.448;2023-09-19T15:18:33;9.63;;;1.90;;
29432;SDS011;16405;53.964;13.448;2023-09-19T15:21:02;6.95;;;2.00;;
29432;SDS011;16405;53.964;13.448;2023-09-19T15:23:29;9.52;;;2.35;;
29432;SDS011;16405;53.964;13.448;2023-09-19T15:25:57;5.68;;;2.22;;
29432;SDS011;16405;53.964;13.448;2023-09-19T15:28:23;10.10;;;2.03;;
29432;SDS011;16405;53.964;13.448;2023-09-19T15:30:49;8.50;;;2.25;;
29432;SDS011;16405;53.964;13.448;2023-09-19T15:33:15;9.23;;;2.25;;
29432;SDS011;16405;53.964;13.448;2023-09-19T15:35:41;7.80;;;2.00;;
29432;SDS011;16405;53.964;13.448;2023-09-19T15:38:07;9.20;;;1.90;;
29432;SDS011;16405;53.964;13.448;2023-09-19T15:40:33;11.10;;;2.17;;
29432;SDS011;16405;53.964;13.448;2023-09-19T15:42:59;13.98;;;2.00;;